YMAV/AVV METAR and TAF weather

Enter ICAO airport designator
Station Type Date Time Source
YMAV METAR 2022/01/29 00:00 UTC NOAA

YMAV 290000Z AUTO 17011KT 9999 // OVC021 20/15 Q1018


Station Type Date Time Source
YMAV Decoded METAR 2022/01/29 00:00 UTC NOAA

Avalon, Avalon Airport, Australia (YMAV) 38-02S 144-29E
Jan 28, 2022 - 07:00 PM EST / 2022.01.29 0000 UTC
Wind: from the S (170 degrees) at 13 MPH (11 KT):0
Visibility: greater than 7 mile(s):0
Sky conditions: overcast
Temperature: 68 F (20 C)
Dew Point: 59 F (15 C)
Relative Humidity: 72%
Pressure (altimeter): 30.06 in. Hg (1018 hPa)
ob: YMAV 290000Z AUTO 17011KT 9999 // OVC021 20/15 Q1018
cycle: 0

Station Type Date Time Source
YMAV TAF 2022/01/28 18:09 UTC NOAA

TAF TAF
AMD YMAV 281705Z 2818/2918 18010KT 9999 -DZ SCT008 BKN015
BECMG 2822/2823 17010KT 9999 NSW FEW015 BKN025
FM290300 18016G26KT 9999 SCT020 BKN030
BECMG 2908/2909 17012KT 9999 SCT012 BKN016
BECMG 2912/2914 14008KT 9999 -DZ SCT008 BKN012
TEMPO 2818/2821 3000 DZ BKN008
TEMPO 2910/2918 3000 DZ BKN008

Example: see airport list